Terminal Aerodrome Forecast
Issued by NWS Northern Indiana

Home | Current Version | Previous Version | Text Only | Print | Product List | Glossary Off
Versions: 1 2 3 4 5 6 7 8 9 10 11 12 13 14 15 16 17 18

000
FTUS43 KIWX 250900 AAA
TAFFWA
TAF AMD
KFWA 250910Z 2509/2606 12012KT 5SM -RA BR OVC040 WS020/18050KT
      TEMPO 2509/2512 2SM RA BR OVC008
     FM251200 20017KT 4SM BR BKN006 OVC015
     FM251500 24014G24KT P6SM OVC015
     FM251900 25014KT P6SM SCT020
     FM260000 25006KT P6SM BKN080=

USA.gov is the U.S. government's official web portal to all federal, state and local government web resources and services.